Time;durP1;ratioP1;P1;durP2;ratioP2;P2;SDS_P1;SDS_P2;PMS_P1;PMS_P2;Temp;Humidity;BMP_temperature;BMP_pressure;BME280_temperature;BME280_humidity;BME280_pressure;Samples;Min_cycle;Max_cycle;Signal;HPM_P1;HPM_P2
2022/08/23 00:01:29;;;;;;;2.95;1.50;;;;;;;;;;4964474;28;20432;-67
2022/08/23 00:03:56;;;;;;;4.57;1.65;;;;;;;;;;4966393;28;20483;-68
2022/08/23 00:06:22;;;;;;;2.65;1.38;;;;;;;;;;4946293;28;20042;-67
2022/08/23 00:08:50;;;;;;;3.03;1.80;;;;;;;;;;4964056;28;20483;-68
2022/08/23 00:11:35;;;;;;;2.88;1.30;;;;;;;;;;4962502;28;20519;-69
2022/08/23 00:14:16;;;;;;;2.88;1.55;;;;;;;;;;4945751;28;20051;-68
2022/08/23 00:16:41;;;;;;;4.65;1.50;;;;;;;;;;4965426;28;20455;-68
2022/08/23 00:19:09;;;;;;;2.88;1.40;;;;;;;;;;4963613;28;20066;-68
2022/08/23 00:21:36;;;;;;;2.90;1.58;;;;;;;;;;4966219;28;20122;-68
2022/08/23 00:24:02;;;;;;;2.67;1.50;;;;;;;;;;4961471;28;20169;-67
2022/08/23 00:26:48;;;;;;;3.63;1.40;;;;;;;;;;4966429;28;20106;-68
2022/08/23 00:29:14;;;;;;;3.72;1.40;;;;;;;;;;4959443;28;20066;-68
2022/08/23 00:31:39;;;;;;;2.00;1.33;;;;;;;;;;4963939;28;20039;-68
2022/08/23 00:34:05;;;;;;;2.65;1.40;;;;;;;;;;4948126;28;20513;-67
2022/08/23 00:36:31;;;;;;;4.43;1.50;;;;;;;;;;4963550;28;20035;-67
2022/08/23 00:38:56;;;;;;;3.92;1.50;;;;;;;;;;4962360;28;20486;-67
2022/08/23 00:41:22;;;;;;;5.55;1.40;;;;;;;;;;4964122;28;20053;-67
2022/08/23 00:49:32;;;;;;;6.10;1.50;;;;;;;;;;4966251;28;20243;-69
2022/08/23 00:52:15;;;;;;;1.38;1.27;;;;;;;;;;4964212;28;20045;-68
2022/08/23 00:54:42;;;;;;;4.32;1.50;;;;;;;;;;4921320;28;1207099;-67
2022/08/23 00:57:18;;;;;;;5.05;1.60;;;;;;;;;;4965102;28;20077;-68
2022/08/23 00:59:44;;;;;;;2.97;1.58;;;;;;;;;;4965294;28;20069;-68
2022/08/23 01:02:11;;;;;;;5.30;1.60;;;;;;;;;;4961847;28;20388;-69
2022/08/23 01:04:43;;;;;;;2.63;1.50;;;;;;;;;;4959990;28;20081;-68
2022/08/23 01:07:19;;;;;;;2.72;1.25;;;;;;;;;;4963778;28;20047;-69
2022/08/23 01:09:47;;;;;;;3.53;1.40;;;;;;;;;;4966525;28;20073;-68
2022/08/23 01:12:22;;;;;;;4.35;1.45;;;;;;;;;;4965300;28;20165;-68
2022/08/23 01:14:56;;;;;;;7.03;1.52;;;;;;;;;;4963596;28;20043;-68
2022/08/23 01:17:32;;;;;;;2.40;1.30;;;;;;;;;;4964564;28;20125;-67
2022/08/23 01:20:06;;;;;;;2.45;1.33;;;;;;;;;;4948909;28;20767;-69
2022/08/23 01:22:40;;;;;;;2.08;1.50;;;;;;;;;;4964787;28;20499;-68
2022/08/23 01:25:09;;;;;;;4.50;1.50;;;;;;;;;;4963075;28;20085;-68
2022/08/23 01:27:35;;;;;;;4.00;1.65;;;;;;;;;;4963706;28;20035;-69
2022/08/23 01:30:00;;;;;;;2.85;1.25;;;;;;;;;;4966523;28;20051;-68
2022/08/23 01:32:26;;;;;;;4.80;1.70;;;;;;;;;;4966130;28;20043;-68
2022/08/23 01:34:51;;;;;;;2.33;1.50;;;;;;;;;;4962418;28;20443;-68
2022/08/23 01:37:18;;;;;;;3.80;1.50;;;;;;;;;;4968490;28;20078;-68
2022/08/23 01:39:44;;;;;;;2.83;1.50;;;;;;;;;;4965346;28;20061;-68
2022/08/23 01:42:10;;;;;;;2.05;1.33;;;;;;;;;;4959169;28;20138;-68
2022/08/23 01:44:35;;;;;;;2.05;1.30;;;;;;;;;;4965725;28;20142;-67
2022/08/23 01:47:00;;;;;;;3.42;1.50;;;;;;;;;;4949205;28;20479;-68
2022/08/23 01:49:26;;;;;;;5.40;1.40;;;;;;;;;;4965998;28;20089;-67
2022/08/23 01:51:51;;;;;;;2.55;1.50;;;;;;;;;;4964547;28;20392;-69
2022/08/23 01:54:16;;;;;;;2.67;1.65;;;;;;;;;;4968110;28;20058;-69
2022/08/23 01:56:42;;;;;;;1.90;1.40;;;;;;;;;;4965773;28;20460;-70
2022/08/23 01:59:09;;;;;;;4.30;1.50;;;;;;;;;;4964894;28;20030;-68
2022/08/23 02:01:35;;;;;;;5.00;1.70;;;;;;;;;;4966060;28;20042;-69
2022/08/23 02:04:00;;;;;;;4.90;1.73;;;;;;;;;;4966358;28;20061;-68
2022/08/23 02:06:26;;;;;;;3.33;1.40;;;;;;;;;;4948135;28;20602;-68
2022/08/23 02:09:01;;;;;;;2.47;1.45;;;;;;;;;;4966202;28;20050;-68
2022/08/23 02:11:29;;;;;;;3.22;1.67;;;;;;;;;;4963485;28;20507;-68
2022/08/23 02:13:57;;;;;;;4.50;1.83;;;;;;;;;;4965959;28;20027;-69
2022/08/23 02:16:26;;;;;;;4.57;1.63;;;;;;;;;;4967285;28;20759;-69
2022/08/23 02:18:53;;;;;;;8.00;2.03;;;;;;;;;;4967393;28;20031;-68
2022/08/23 02:21:19;;;;;;;5.00;1.60;;;;;;;;;;4965386;28;20047;-69
2022/08/23 02:23:45;;;;;;;4.95;1.58;;;;;;;;;;4960413;28;20565;-68
2022/08/23 02:26:11;;;;;;;4.70;1.60;;;;;;;;;;4965144;28;20599;-68
2022/08/23 02:28:37;;;;;;;5.45;1.90;;;;;;;;;;4965993;28;20027;-68
2022/08/23 02:31:02;;;;;;;2.50;1.50;;;;;;;;;;4964312;28;20134;-68
2022/08/23 02:33:27;;;;;;;3.90;1.48;;;;;;;;;;4963503;28;20742;-68
2022/08/23 02:35:53;;;;;;;3.42;1.48;;;;;;;;;;4963794;28;20038;-68
2022/08/23 02:38:18;;;;;;;4.60;2.30;;;;;;;;;;4965416;28;20065;-67
2022/08/23 02:40:44;;;;;;;3.85;1.40;;;;;;;;;;4963086;28;20039;-68
2022/08/23 02:43:09;;;;;;;5.80;1.50;;;;;;;;;;4962374;28;20042;-68
2022/08/23 02:45:36;;;;;;;2.03;1.50;;;;;;;;;;4966143;28;20047;-69
2022/08/23 02:48:02;;;;;;;4.78;1.90;;;;;;;;;;4963509;28;20408;-68
2022/08/23 02:50:28;;;;;;;4.68;1.73;;;;;;;;;;4964047;28;20050;-68
2022/08/23 02:52:53;;;;;;;3.33;1.85;;;;;;;;;;4965743;28;20042;-68
2022/08/23 02:55:19;;;;;;;4.72;1.70;;;;;;;;;;4966548;28;20857;-69
2022/08/23 02:57:45;;;;;;;2.72;1.45;;;;;;;;;;4965157;28;20136;-67
2022/08/23 03:00:12;;;;;;;2.90;1.60;;;;;;;;;;4950676;28;20042;-67
2022/08/23 03:02:38;;;;;;;7.35;1.90;;;;;;;;;;4966577;28;20037;-68
2022/08/23 03:05:05;;;;;;;4.80;1.70;;;;;;;;;;4965421;28;20039;-69
2022/08/23 03:07:30;;;;;;;3.50;1.42;;;;;;;;;;4967120;28;20129;-69
2022/08/23 03:09:56;;;;;;;5.55;1.55;;;;;;;;;;4963073;28;20672;-69
2022/08/23 03:12:22;;;;;;;1.80;1.50;;;;;;;;;;4961805;28;20261;-68
2022/08/23 03:14:50;;;;;;;4.20;1.60;;;;;;;;;;4964126;28;20496;-68
2022/08/23 03:17:16;;;;;;;3.05;1.55;;;;;;;;;;4963618;28;20475;-68
2022/08/23 03:19:41;;;;;;;6.30;1.63;;;;;;;;;;4965290;28;20030;-68
2022/08/23 03:22:06;;;;;;;2.90;1.50;;;;;;;;;;4965152;28;20050;-68
2022/08/23 03:24:32;;;;;;;2.65;1.60;;;;;;;;;;4962712;28;20031;-67
2022/08/23 03:26:57;;;;;;;2.20;1.50;;;;;;;;;;4964082;28;20551;-68
2022/08/23 03:29:24;;;;;;;2.60;1.83;;;;;;;;;;4966595;28;20073;-71
2022/08/23 03:31:50;;;;;;;2.10;1.60;;;;;;;;;;4965715;28;20120;-69
2022/08/23 03:34:16;;;;;;;3.33;1.67;;;;;;;;;;4965265;28;20121;-69
2022/08/23 03:36:41;;;;;;;4.10;1.55;;;;;;;;;;4965304;28;20508;-68
2022/08/23 03:39:07;;;;;;;4.32;1.50;;;;;;;;;;4964761;28;20082;-67
2022/08/23 03:41:32;;;;;;;2.92;1.58;;;;;;;;;;4964140;28;20537;-67
2022/08/23 03:43:58;;;;;;;3.60;1.70;;;;;;;;;;4961789;28;20034;-68
2022/08/23 03:46:23;;;;;;;1.55;1.42;;;;;;;;;;4960610;28;20399;-68
2022/08/23 03:48:50;;;;;;;4.80;1.60;;;;;;;;;;4962999;28;20031;-68
2022/08/23 03:51:16;;;;;;;2.67;1.63;;;;;;;;;;4963326;28;20061;-70
2022/08/23 03:53:43;;;;;;;1.92;1.50;;;;;;;;;;4962754;28;20046;-67
2022/08/23 03:56:09;;;;;;;2.75;1.58;;;;;;;;;;4965108;28;20133;-68
2022/08/23 03:58:34;;;;;;;4.38;1.60;;;;;;;;;;4965325;28;20019;-69
2022/08/23 04:00:59;;;;;;;3.05;1.65;;;;;;;;;;4963998;28;20047;-68
2022/08/23 04:03:25;;;;;;;3.65;1.58;;;;;;;;;;4964961;28;20043;-68
2022/08/23 04:05:51;;;;;;;3.10;1.50;;;;;;;;;;4965228;28;20077;-68
2022/08/23 04:08:16;;;;;;;6.35;1.70;;;;;;;;;;4964631;28;20051;-69
2022/08/23 04:10:42;;;;;;;6.70;1.55;;;;;;;;;;4961640;28;20035;-68
2022/08/23 04:13:09;;;;;;;7.18;2.10;;;;;;;;;;4962614;28;20395;-69
2022/08/23 04:15:35;;;;;;;2.25;1.70;;;;;;;;;;4963829;28;20499;-68
2022/08/23 04:18:00;;;;;;;4.32;1.50;;;;;;;;;;4964950;28;20084;-68
2022/08/23 04:20:27;;;;;;;4.60;1.58;;;;;;;;;;4962204;28;20079;-68
2022/08/23 04:22:54;;;;;;;4.40;1.80;;;;;;;;;;4965146;28;20081;-68
2022/08/23 04:25:20;;;;;;;2.38;1.35;;;;;;;;;;4962781;28;20133;-69
2022/08/23 04:27:45;;;;;;;3.63;1.77;;;;;;;;;;4962724;28;20115;-67
2022/08/23 04:30:11;;;;;;;3.55;1.88;;;;;;;;;;4962806;28;20448;-67
2022/08/23 04:32:36;;;;;;;3.47;1.60;;;;;;;;;;4961484;28;20671;-67
2022/08/23 04:35:02;;;;;;;6.93;2.47;;;;;;;;;;4962930;28;20036;-67
2022/08/23 04:37:27;;;;;;;6.38;2.35;;;;;;;;;;4962874;28;20502;-68
2022/08/23 04:42:37;;;;;;;3.08;2.00;;;;;;;;;;4964721;28;20074;-68
2022/08/23 04:45:02;;;;;;;3.60;2.10;;;;;;;;;;4947215;28;20114;-68
2022/08/23 04:47:28;;;;;;;4.57;2.60;;;;;;;;;;4963551;28;20476;-68
2022/08/23 04:49:53;;;;;;;8.85;2.70;;;;;;;;;;4965632;28;20027;-67
2022/08/23 04:52:19;;;;;;;6.38;2.55;;;;;;;;;;4962857;28;20039;-68
2022/08/23 04:54:45;;;;;;;3.15;2.20;;;;;;;;;;4949355;28;20058;-68
2022/08/23 04:57:11;;;;;;;5.85;1.90;;;;;;;;;;4961448;28;20098;-68
2022/08/23 04:59:36;;;;;;;5.40;1.65;;;;;;;;;;4964491;28;20126;-67
2022/08/23 05:02:01;;;;;;;3.38;1.92;;;;;;;;;;4962061;28;20035;-68
2022/08/23 05:04:27;;;;;;;3.88;1.90;;;;;;;;;;4962572;28;20069;-67
2022/08/23 05:06:52;;;;;;;3.17;1.90;;;;;;;;;;4963631;28;20039;-69
2022/08/23 05:09:18;;;;;;;4.63;2.00;;;;;;;;;;4963328;28;20043;-68
2022/08/23 05:11:44;;;;;;;3.85;1.88;;;;;;;;;;4963325;28;20149;-68
2022/08/23 05:14:09;;;;;;;3.97;2.00;;;;;;;;;;4964174;28;20507;-70
2022/08/23 05:16:35;;;;;;;6.03;1.60;;;;;;;;;;4961866;28;20050;-68
2022/08/23 05:19:00;;;;;;;3.80;1.83;;;;;;;;;;4961623;28;20042;-69
2022/08/23 05:21:25;;;;;;;2.13;1.48;;;;;;;;;;4960582;28;20035;-68
2022/08/23 05:23:51;;;;;;;5.82;1.60;;;;;;;;;;4959321;28;20053;-68
2022/08/23 05:26:18;;;;;;;4.32;1.70;;;;;;;;;;4961414;28;20501;-68
2022/08/23 05:28:46;;;;;;;2.13;1.70;;;;;;;;;;4964129;28;20434;-68
2022/08/23 05:31:21;;;;;;;5.28;1.75;;;;;;;;;;4962038;28;20039;-67
2022/08/23 05:33:48;;;;;;;6.40;2.47;;;;;;;;;;4950060;28;20042;-67
2022/08/23 05:36:14;;;;;;;10.52;1.95;;;;;;;;;;4964084;28;20054;-70
2022/08/23 05:38:40;;;;;;;4.88;1.70;;;;;;;;;;4964369;28;20042;-69
2022/08/23 05:41:06;;;;;;;3.65;1.92;;;;;;;;;;4964758;28;20835;-68
2022/08/23 05:43:32;;;;;;;10.32;2.75;;;;;;;;;;4965670;28;20081;-67
2022/08/23 05:46:12;;;;;;;5.13;2.00;;;;;;;;;;4965085;28;20039;-67
2022/08/23 05:48:38;;;;;;;3.83;1.80;;;;;;;;;;4966506;28;20042;-67
2022/08/23 05:51:12;;;;;;;4.22;1.60;;;;;;;;;;4965684;28;20570;-67
2022/08/23 05:53:38;;;;;;;8.43;2.15;;;;;;;;;;4965639;28;21302;-68
2022/08/23 05:56:26;;;;;;;5.25;2.10;;;;;;;;;;4966951;28;20090;-68
2022/08/23 05:58:54;;;;;;;10.48;3.63;;;;;;;;;;4963327;28;20035;-70
2022/08/23 06:01:20;;;;;;;8.00;3.50;;;;;;;;;;4963600;28;20491;-68
2022/08/23 06:03:46;;;;;;;4.25;2.45;;;;;;;;;;4966484;28;20118;-68
2022/08/23 06:06:14;;;;;;;6.35;2.47;;;;;;;;;;4968266;28;20039;-68
2022/08/23 06:08:41;;;;;;;3.97;2.28;;;;;;;;;;4963769;28;20051;-68
2022/08/23 06:11:10;;;;;;;7.40;2.30;;;;;;;;;;4967725;28;20046;-68
2022/08/23 06:13:41;;;;;;;4.85;1.90;;;;;;;;;;4965481;28;20029;-68
2022/08/23 06:16:08;;;;;;;5.85;2.30;;;;;;;;;;4965575;28;20185;-68
2022/08/23 06:18:33;;;;;;;7.43;2.30;;;;;;;;;;4962535;28;20412;-69
2022/08/23 06:21:04;;;;;;;5.50;1.98;;;;;;;;;;4963084;28;20051;-67
2022/08/23 06:23:31;;;;;;;3.00;1.85;;;;;;;;;;4962958;28;20039;-67
2022/08/23 06:25:56;;;;;;;4.55;1.73;;;;;;;;;;4967451;28;20045;-66
2022/08/23 06:28:22;;;;;;;5.55;2.05;;;;;;;;;;4967485;28;20054;-68
2022/08/23 06:30:47;;;;;;;9.82;2.08;;;;;;;;;;4966948;28;20578;-68
2022/08/23 06:33:13;;;;;;;5.05;1.73;;;;;;;;;;4951742;28;20036;-69
2022/08/23 06:35:39;;;;;;;6.55;2.00;;;;;;;;;;4966376;28;20133;-67
2022/08/23 06:38:05;;;;;;;8.13;2.00;;;;;;;;;;4963255;28;20027;-67
2022/08/23 06:40:33;;;;;;;5.32;1.95;;;;;;;;;;4965914;28;20030;-66
2022/08/23 06:42:59;;;;;;;7.50;2.13;;;;;;;;;;4963141;28;20512;-68
2022/08/23 06:45:24;;;;;;;6.65;1.83;;;;;;;;;;4950366;28;20129;-66
2022/08/23 06:47:50;;;;;;;11.10;2.25;;;;;;;;;;4967174;28;20039;-67
2022/08/23 06:50:15;;;;;;;6.63;2.10;;;;;;;;;;4963940;28;20069;-66
2022/08/23 06:52:40;;;;;;;8.45;2.28;;;;;;;;;;4952647;28;20101;-66
2022/08/23 06:55:07;;;;;;;10.23;1.75;;;;;;;;;;4961748;28;20110;-68
2022/08/23 06:57:32;;;;;;;9.18;2.00;;;;;;;;;;4961065;28;20065;-68
2022/08/23 06:59:58;;;;;;;10.38;2.50;;;;;;;;;;4965952;28;20042;-66
2022/08/23 07:02:23;;;;;;;11.75;1.90;;;;;;;;;;4949260;28;20406;-68
2022/08/23 07:04:54;;;;;;;13.25;2.00;;;;;;;;;;4946510;28;20031;-68
2022/08/23 07:07:20;;;;;;;9.02;2.00;;;;;;;;;;4964148;28;20069;-68
2022/08/23 07:09:45;;;;;;;8.93;1.88;;;;;;;;;;4966033;28;20559;-68
2022/08/23 07:12:10;;;;;;;10.63;1.90;;;;;;;;;;4963411;28;20101;-68
2022/08/23 07:14:37;;;;;;;7.50;1.65;;;;;;;;;;4965788;28;20134;-68
2022/08/23 07:17:03;;;;;;;11.77;2.33;;;;;;;;;;4964315;28;20037;-68
2022/08/23 07:19:31;;;;;;;4.75;1.80;;;;;;;;;;4965227;28;20042;-68
2022/08/23 07:21:58;;;;;;;4.93;1.77;;;;;;;;;;4963661;28;20046;-67
2022/08/23 07:24:24;;;;;;;3.88;1.75;;;;;;;;;;4964314;28;20573;-67
2022/08/23 07:26:51;;;;;;;2.90;1.42;;;;;;;;;;4963665;28;20042;-67
2022/08/23 07:29:16;;;;;;;3.30;1.50;;;;;;;;;;4963167;28;20390;-67
2022/08/23 07:31:45;;;;;;;7.63;2.10;;;;;;;;;;4944650;28;20031;-67
2022/08/23 07:34:12;;;;;;;12.25;2.35;;;;;;;;;;4964746;28;20034;-67
2022/08/23 07:36:39;;;;;;;11.43;1.90;;;;;;;;;;4961436;28;20050;-67
2022/08/23 07:39:07;;;;;;;5.97;2.30;;;;;;;;;;4961178;28;20444;-68
2022/08/23 07:41:33;;;;;;;11.48;2.58;;;;;;;;;;4965034;28;20125;-66
2022/08/23 07:44:01;;;;;;;10.18;2.03;;;;;;;;;;4962789;28;20027;-68
2022/08/23 07:46:27;;;;;;;6.07;1.80;;;;;;;;;;4963504;28;20427;-67
2022/08/23 07:48:56;;;;;;;6.43;1.92;;;;;;;;;;4963236;28;20533;-67
2022/08/23 07:51:22;;;;;;;10.07;2.00;;;;;;;;;;4962239;28;20046;-68
2022/08/23 07:53:48;;;;;;;5.22;1.80;;;;;;;;;;4960695;28;20035;-68
2022/08/23 07:56:15;;;;;;;6.85;2.08;;;;;;;;;;4960746;28;20042;-67
2022/08/23 07:58:41;;;;;;;9.48;2.05;;;;;;;;;;4962192;28;20030;-67
2022/08/23 08:01:15;;;;;;;9.43;1.92;;;;;;;;;;4961962;28;20041;-67
2022/08/23 08:03:43;;;;;;;5.10;2.00;;;;;;;;;;4964690;28;20089;-67
2022/08/23 08:06:11;;;;;;;5.25;1.77;;;;;;;;;;4962431;28;20428;-67
2022/08/23 08:08:39;;;;;;;6.63;2.10;;;;;;;;;;4962912;28;20499;-66
2022/08/23 08:11:06;;;;;;;6.88;1.92;;;;;;;;;;4961722;28;20034;-67
2022/08/23 08:13:32;;;;;;;8.00;1.90;;;;;;;;;;4966011;28;20030;-66
2022/08/23 08:15:57;;;;;;;7.57;2.05;;;;;;;;;;4963135;28;20093;-66
2022/08/23 08:18:22;;;;;;;6.10;1.98;;;;;;;;;;4962517;28;20046;-68
2022/08/23 08:20:48;;;;;;;4.25;2.15;;;;;;;;;;4949301;28;20031;-68
2022/08/23 08:23:13;;;;;;;4.60;2.00;;;;;;;;;;4958178;28;20037;-68
2022/08/23 08:25:38;;;;;;;4.75;1.83;;;;;;;;;;4963274;28;20037;-68
2022/08/23 08:28:04;;;;;;;5.55;2.40;;;;;;;;;;4961378;28;20126;-68
2022/08/23 08:30:29;;;;;;;7.47;2.03;;;;;;;;;;4959954;28;20069;-66
2022/08/23 08:32:55;;;;;;;3.80;1.95;;;;;;;;;;4963004;28;20573;-66
2022/08/23 08:35:20;;;;;;;4.60;2.10;;;;;;;;;;4962063;28;20039;-66
2022/08/23 08:37:45;;;;;;;7.18;2.22;;;;;;;;;;4960894;28;20069;-67
2022/08/23 08:40:11;;;;;;;4.80;2.10;;;;;;;;;;4963977;28;20391;-67
2022/08/23 08:42:42;;;;;;;8.77;2.10;;;;;;;;;;4964360;28;20549;-67
2022/08/23 08:45:17;;;;;;;7.83;2.27;;;;;;;;;;4964323;28;20054;-67
2022/08/23 08:48:05;;;;;;;6.00;2.05;;;;;;;;;;4963475;28;20091;-67
2022/08/23 08:50:40;;;;;;;7.03;2.17;;;;;;;;;;4961847;28;20089;-67
2022/08/23 08:53:29;;;;;;;5.50;2.03;;;;;;;;;;4961550;28;20042;-67
2022/08/23 08:55:59;;;;;;;5.82;2.33;;;;;;;;;;4961830;28;20542;-68
2022/08/23 08:58:47;;;;;;;6.32;2.38;;;;;;;;;;4963000;28;20034;-65
2022/08/23 09:01:19;;;;;;;6.20;1.77;;;;;;;;;;4964356;28;20126;-67
2022/08/23 09:03:45;;;;;;;5.80;2.28;;;;;;;;;;4962534;28;20063;-67
2022/08/23 09:06:20;;;;;;;5.57;2.15;;;;;;;;;;4963746;28;20728;-67
2022/08/23 09:09:04;;;;;;;7.18;1.70;;;;;;;;;;4965237;28;20050;-66
2022/08/23 09:11:38;;;;;;;9.25;2.58;;;;;;;;;;4966793;28;20050;-66
2022/08/23 09:14:16;;;;;;;4.90;2.22;;;;;;;;;;4964617;28;20062;-67
2022/08/23 09:16:47;;;;;;;6.80;2.10;;;;;;;;;;4969115;28;20038;-67
2022/08/23 09:19:12;;;;;;;7.90;1.98;;;;;;;;;;4966939;28;20062;-66
2022/08/23 09:21:54;;;;;;;6.85;2.15;;;;;;;;;;4966342;28;20031;-68
2022/08/23 09:24:19;;;;;;;5.03;2.25;;;;;;;;;;4963250;28;20042;-65
2022/08/23 09:26:44;;;;;;;4.30;2.15;;;;;;;;;;4961173;28;20069;-68
2022/08/23 09:29:17;;;;;;;5.60;2.28;;;;;;;;;;4965590;28;20043;-69
2022/08/23 09:31:57;;;;;;;5.47;2.08;;;;;;;;;;4964133;28;20058;-68
2022/08/23 09:34:40;;;;;;;9.02;2.38;;;;;;;;;;4965307;28;20081;-65
2022/08/23 09:37:12;;;;;;;7.93;2.33;;;;;;;;;;4965054;28;20450;-66
2022/08/23 09:39:43;;;;;;;11.00;2.65;;;;;;;;;;4966924;28;20418;-69
2022/08/23 09:42:28;;;;;;;3.45;2.00;;;;;;;;;;4967202;28;20038;-68
2022/08/23 09:44:55;;;;;;;7.65;2.38;;;;;;;;;;4965345;28;20031;-68
2022/08/23 09:47:30;;;;;;;8.50;2.03;;;;;;;;;;4964600;28;20035;-67
2022/08/23 09:50:15;;;;;;;5.63;2.05;;;;;;;;;;4967310;28;20037;-66
2022/08/23 09:52:40;;;;;;;8.85;2.00;;;;;;;;;;4968864;28;20126;-66
2022/08/23 09:55:25;;;;;;;6.43;2.30;;;;;;;;;;4967170;28;20467;-66
2022/08/23 09:57:51;;;;;;;8.88;2.70;;;;;;;;;;4966801;28;20043;-66
2022/08/23 10:00:21;;;;;;;7.82;2.35;;;;;;;;;;4966462;28;20407;-67
2022/08/23 10:02:46;;;;;;;6.35;2.10;;;;;;;;;;4968267;28;20043;-68
2022/08/23 10:05:15;;;;;;;5.63;2.03;;;;;;;;;;4964298;28;20051;-67
2022/08/23 10:07:42;;;;;;;4.25;1.98;;;;;;;;;;4963465;28;20026;-66
2022/08/23 10:10:20;;;;;;;6.32;2.47;;;;;;;;;;4963426;28;20054;-66
2022/08/23 10:12:45;;;;;;;8.48;2.38;;;;;;;;;;4963285;28;20046;-67
2022/08/23 10:15:13;;;;;;;5.05;2.35;;;;;;;;;;4965676;28;20049;-66
2022/08/23 10:17:59;;;;;;;3.92;1.92;;;;;;;;;;4969599;28;20047;-66
2022/08/23 10:20:53;;;;;;;6.43;2.50;;;;;;;;;;4967152;28;20131;-67
2022/08/23 10:23:37;;;;;;;5.82;2.25;;;;;;;;;;4960853;28;20093;-66
2022/08/23 10:26:09;;;;;;;7.22;2.30;;;;;;;;;;4964642;28;20494;-66
2022/08/23 10:32:16;;;;;;;4.20;2.47;;;;;;;;;;4963292;28;20050;-67
2022/08/23 10:34:50;;;;;;;8.25;2.25;;;;;;;;;;4965504;28;20131;-67
2022/08/23 10:37:48;;;;;;;5.70;2.25;;;;;;;;;;4963203;28;20046;-67
2022/08/23 10:40:42;;;;;;;6.18;2.10;;;;;;;;;;4928700;28;20043;-68
2022/08/23 10:43:13;;;;;;;4.35;2.10;;;;;;;;;;4964198;28;20049;-65
2022/08/23 10:45:41;;;;;;;3.95;1.90;;;;;;;;;;4960823;28;20062;-67
2022/08/23 10:48:10;;;;;;;5.80;2.30;;;;;;;;;;4960432;28;20030;-67
2022/08/23 10:50:56;;;;;;;4.55;2.03;;;;;;;;;;4962663;28;20041;-68
2022/08/23 10:53:30;;;;;;;4.15;2.35;;;;;;;;;;4961718;28;20786;-68
2022/08/23 10:56:03;;;;;;;4.47;2.20;;;;;;;;;;4963017;28;20407;-67
2022/08/23 10:58:48;;;;;;;5.35;1.95;;;;;;;;;;4964404;28;20129;-68
2022/08/23 11:01:17;;;;;;;5.63;2.42;;;;;;;;;;4961007;28;20043;-70
2022/08/23 11:03:50;;;;;;;6.60;2.20;;;;;;;;;;4966442;28;20078;-69
2022/08/23 11:06:34;;;;;;;5.45;2.28;;;;;;;;;;4962323;28;20046;-67
2022/08/23 11:09:07;;;;;;;6.80;2.08;;;;;;;;;;4969436;28;20569;-68
2022/08/23 11:11:40;;;;;;;5.85;2.45;;;;;;;;;;4961057;28;20053;-68
2022/08/23 11:14:11;;;;;;;4.13;2.28;;;;;;;;;;4963621;28;20585;-68
2022/08/23 11:16:41;;;;;;;4.55;2.25;;;;;;;;;;4961750;28;20104;-68
2022/08/23 11:19:30;;;;;;;7.15;2.20;;;;;;;;;;4965247;28;20031;-68
2022/08/23 11:22:20;;;;;;;6.32;2.10;;;;;;;;;;4960411;28;20038;-68
2022/08/23 11:24:50;;;;;;;6.90;2.28;;;;;;;;;;4963615;28;20031;-68
2022/08/23 11:27:39;;;;;;;5.50;2.40;;;;;;;;;;4962435;28;20137;-69
2022/08/23 11:30:30;;;;;;;3.35;1.98;;;;;;;;;;4963230;28;20058;-68
2022/08/23 11:33:09;;;;;;;5.13;2.10;;;;;;;;;;4964377;28;20043;-67
2022/08/23 11:35:41;;;;;;;8.05;2.40;;;;;;;;;;4965761;28;20046;-67
2022/08/23 11:38:07;;;;;;;4.63;2.30;;;;;;;;;;4965842;28;20038;-68
2022/08/23 11:40:51;;;;;;;4.55;2.10;;;;;;;;;;4965001;28;20023;-68
2022/08/23 11:43:26;;;;;;;8.90;2.30;;;;;;;;;;4966559;28;20181;-67
2022/08/23 11:45:52;;;;;;;3.88;2.10;;;;;;;;;;4959800;28;21456;-68
2022/08/23 11:48:28;;;;;;;5.25;2.60;;;;;;;;;;4961551;28;20053;-68
2022/08/23 11:51:14;;;;;;;7.45;2.22;;;;;;;;;;4961114;28;20101;-67
2022/08/23 11:53:48;;;;;;;7.90;2.45;;;;;;;;;;4952013;28;20702;-67
2022/08/23 11:56:22;;;;;;;3.72;2.30;;;;;;;;;;4963003;28;20039;-66
2022/08/23 11:59:18;;;;;;;5.90;2.42;;;;;;;;;;4961344;28;20023;-66
2022/08/23 12:01:45;;;;;;;4.57;2.03;;;;;;;;;;4956020;28;20190;-66
2022/08/23 12:04:29;;;;;;;5.28;2.10;;;;;;;;;;4960697;28;20073;-66
2022/08/23 12:07:02;;;;;;;5.20;2.20;;;;;;;;;;4964306;28;20050;-66
2022/08/23 12:09:27;;;;;;;;;;;;;;;;;;4963323;28;20050;-67
2022/08/23 12:11:55;;;;;;;6.03;2.60;;;;;;;;;;4963649;28;19979;-67
2022/08/23 12:14:31;;;;;;;5.47;2.28;;;;;;;;;;4965984;28;20038;-68
2022/08/23 12:16:59;;;;;;;5.03;2.13;;;;;;;;;;4965908;28;20034;-67
2022/08/23 12:19:37;;;;;;;5.85;2.20;;;;;;;;;;4960687;28;20150;-66
2022/08/23 12:22:11;;;;;;;2.92;1.88;;;;;;;;;;4962933;28;20039;-66
2022/08/23 12:24:54;;;;;;;6.53;2.10;;;;;;;;;;4959626;28;20045;-66
2022/08/23 12:27:43;;;;;;;6.63;2.20;;;;;;;;;;4959992;28;20047;-65
2022/08/23 12:30:50;;;;;;;6.95;2.75;;;;;;;;;;4944205;28;20050;-65
2022/08/23 12:33:32;;;;;;;3.10;2.20;;;;;;;;;;4920889;28;20042;-68
2022/08/23 12:36:28;;;;;;;4.20;2.10;;;;;;;;;;4964360;28;20046;-66
2022/08/23 12:39:07;;;;;;;5.97;2.10;;;;;;;;;;4961364;28;20046;-66
2022/08/23 12:41:50;;;;;;;5.00;1.98;;;;;;;;;;4964009;28;20122;-66
2022/08/23 12:44:18;;;;;;;2.83;2.00;;;;;;;;;;4966367;28;20046;-66
2022/08/23 12:46:47;;;;;;;4.35;2.00;;;;;;;;;;4964618;28;20042;-66
2022/08/23 12:49:30;;;;;;;7.80;2.10;;;;;;;;;;4965135;28;20039;-66
2022/08/23 12:52:05;;;;;;;4.95;2.15;;;;;;;;;;4966225;28;20039;-66
2022/08/23 12:54:33;;;;;;;3.75;2.22;;;;;;;;;;4965286;28;20511;-66
2022/08/23 12:56:59;;;;;;;4.18;2.20;;;;;;;;;;4964327;28;20035;-67
2022/08/23 12:59:42;;;;;;;4.25;1.80;;;;;;;;;;4966075;28;20045;-65
2022/08/23 13:02:14;;;;;;;5.15;2.15;;;;;;;;;;4961888;28;20027;-67
2022/08/23 13:04:39;;;;;;;3.15;1.90;;;;;;;;;;4965994;28;20039;-68
2022/08/23 13:07:09;;;;;;;6.57;1.92;;;;;;;;;;4966458;28;20105;-68
2022/08/23 13:09:38;;;;;;;5.75;2.58;;;;;;;;;;4960841;28;20058;-67
2022/08/23 13:12:06;;;;;;;3.63;2.50;;;;;;;;;;4965305;28;20045;-68
2022/08/23 13:14:31;;;;;;;8.90;2.45;;;;;;;;;;4948013;28;22592;-67
2022/08/23 13:17:11;;;;;;;5.68;2.50;;;;;;;;;;4965428;28;20125;-68
2022/08/23 13:19:37;;;;;;;4.40;2.35;;;;;;;;;;4961505;28;20502;-66
2022/08/23 13:22:20;;;;;;;3.00;2.08;;;;;;;;;;4962083;28;20046;-67
2022/08/23 13:25:04;;;;;;;5.22;2.10;;;;;;;;;;4968192;28;20054;-68
2022/08/23 13:27:48;;;;;;;3.60;2.05;;;;;;;;;;4964035;28;20038;-68
2022/08/23 13:30:14;;;;;;;7.22;2.38;;;;;;;;;;4963621;28;20050;-67
2022/08/23 13:32:43;;;;;;;3.35;2.17;;;;;;;;;;4966491;28;20049;-67
2022/08/23 13:35:36;;;;;;;4.68;2.25;;;;;;;;;;4950498;28;20070;-67
2022/08/23 13:38:16;;;;;;;6.00;2.22;;;;;;;;;;4959503;28;20126;-68
2022/08/23 13:41:01;;;;;;;4.70;2.28;;;;;;;;;;4958854;28;20039;-68
2022/08/23 13:43:42;;;;;;;5.30;2.13;;;;;;;;;;4964917;28;20042;-66
2022/08/23 13:46:10;;;;;;;3.35;2.08;;;;;;;;;;4962901;28;20073;-67
2022/08/23 13:48:37;;;;;;;3.60;2.00;;;;;;;;;;4960208;28;20039;-66
2022/08/23 13:51:25;;;;;;;9.18;2.40;;;;;;;;;;4960708;28;20410;-66
2022/08/23 13:53:51;;;;;;;4.22;2.05;;;;;;;;;;4963993;28;20038;-69
2022/08/23 13:56:17;;;;;;;4.75;2.20;;;;;;;;;;4962865;28;20031;-66
2022/08/23 13:58:59;;;;;;;3.13;2.03;;;;;;;;;;4962718;28;20518;-67
2022/08/23 14:01:25;;;;;;;3.55;2.22;;;;;;;;;;4961872;28;20041;-67
2022/08/23 14:03:50;;;;;;;3.17;2.17;;;;;;;;;;4963446;28;20556;-67
2022/08/23 14:06:16;;;;;;;6.30;2.13;;;;;;;;;;4963904;28;20059;-66
2022/08/23 14:08:41;;;;;;;3.70;2.33;;;;;;;;;;4963066;28;20089;-67
2022/08/23 14:11:07;;;;;;;2.83;2.47;;;;;;;;;;4963073;28;20664;-66
2022/08/23 14:13:33;;;;;;;4.00;2.20;;;;;;;;;;4964334;28;20041;-67
2022/08/23 14:16:04;;;;;;;3.47;1.90;;;;;;;;;;4960503;28;20515;-68
2022/08/23 14:18:29;;;;;;;3.58;2.20;;;;;;;;;;4956306;28;20039;-67
2022/08/23 14:20:55;;;;;;;5.70;2.38;;;;;;;;;;4960040;28;20365;-67
2022/08/23 14:23:20;;;;;;;5.75;2.17;;;;;;;;;;4962971;28;20069;-66
2022/08/23 14:25:49;;;;;;;6.03;2.33;;;;;;;;;;4963276;28;20567;-67
2022/08/23 14:28:15;;;;;;;2.95;2.20;;;;;;;;;;4963532;28;20138;-66
2022/08/23 14:30:40;;;;;;;4.55;2.60;;;;;;;;;;4960675;28;20042;-67
2022/08/23 14:33:06;;;;;;;3.58;2.00;;;;;;;;;;4950585;28;20039;-67
2022/08/23 14:35:31;;;;;;;4.53;2.33;;;;;;;;;;4963583;28;20030;-66
2022/08/23 14:37:57;;;;;;;2.67;2.03;;;;;;;;;;4964567;28;20039;-67
2022/08/23 14:40:22;;;;;;;4.22;2.40;;;;;;;;;;4963132;28;20133;-67
2022/08/23 14:42:48;;;;;;;4.68;2.22;;;;;;;;;;4964478;28;20046;-67
2022/08/23 14:45:16;;;;;;;6.82;2.40;;;;;;;;;;4966417;28;20069;-67
2022/08/23 14:47:41;;;;;;;3.05;2.08;;;;;;;;;;4965175;28;20114;-67
2022/08/23 14:50:10;;;;;;;3.13;2.13;;;;;;;;;;4964176;28;20045;-67
2022/08/23 14:52:38;;;;;;;4.68;2.15;;;;;;;;;;4963368;28;20067;-67
2022/08/23 14:55:05;;;;;;;6.30;2.28;;;;;;;;;;4965014;28;20590;-67
2022/08/23 14:57:30;;;;;;;4.07;2.08;;;;;;;;;;4966448;28;20116;-66
2022/08/23 14:59:55;;;;;;;2.92;1.95;;;;;;;;;;4962598;28;20480;-66
2022/08/23 15:02:24;;;;;;;3.83;2.00;;;;;;;;;;4963182;28;20038;-67
2022/08/23 15:04:50;;;;;;;5.10;2.08;;;;;;;;;;4960794;28;21708;-67
2022/08/23 15:07:16;;;;;;;3.22;2.00;;;;;;;;;;4964521;28;20046;-68
2022/08/23 15:09:41;;;;;;;4.88;2.10;;;;;;;;;;4962048;28;20035;-67
2022/08/23 15:12:07;;;;;;;4.57;1.92;;;;;;;;;;4963168;28;20045;-67